PWSweather.com
Personal Weather Stations
Station Observations
IROGLAN40
AalgaardNO 4330

AalgaardNO 4330

Lat: 58.773, Lon: 5.846

Elevation: 326

Station Type: Davis Vanatge Pro2

Latest ConditionsUpdated 1:30:01 PM GMT+01:01 Monday, May 27, 2019
Currently Today's Max Today's Min Today's Average
Temperature 52.0°F11.1°C 52.8°F11.6°C 41.2°F5.1°C 46.2°F7.9°C
Dew Point 43.2°F6.2°C 44.7°F7.1°C 38.4°F3.6°C 41.9°F5.5°C
Winds 6.9 mph WNW11.1 kmh WNW 6.9 mph -11.1 kmh - - 2.6 mph 4.2 kmh
Wind Gusts 9.2 mph14.8 kmh 13.8 mph22.2 kmh - -
Humidity 72% 92% 72% 85%
Pressure 29.50 in999.0 mb 29.51 in999.3 mb 29.46 in997.6 mb -
Hour Temp Dew Point Humidity Winds Wind Gusts Pressure Precip Precip Rate Daily Precip Total
01:30 PM 52.0°F11.1°C 43.2°F6.2°C 72% 6.9 mph WNW11.1 kmh WNW 9.2 mph14.8 kmh 29.50 in999.0 mb - 0.00 in0.0 mm 0.00 in0.0 mm
01:20 PM 51.9°F11.1°C 43.2°F6.2°C 72% 6.9 mph WNW11.1 kmh WNW 11.5 mph18.5 kmh 29.50 in999.0 mb - 0.00 in0.0 mm 0.00 in0.0 mm
01:10 PM 51.9°F11.1°C 43.5°F6.4°C 73% 6.9 mph NW11.1 kmh NW 13.8 mph22.2 kmh 29.49 in998.6 mb - 0.00 in0.0 mm 0.00 in0.0 mm
01:00 PM 51.1°F10.6°C 43.1°F6.2°C 74% 6.9 mph WNW11.1 kmh WNW 10.4 mph16.7 kmh 29.49 in998.6 mb - 0.00 in0.0 mm 0.00 in0.0 mm
12:50 PM 51.6°F10.9°C 42.9°F6.1°C 72% 6.9 mph WNW11.1 kmh WNW 10.4 mph16.7 kmh 29.49 in998.6 mb - 0.00 in0.0 mm 0.00 in0.0 mm
12:40 PM 52.8°F11.6°C 44.4°F6.9°C 73% 6.9 mph WNW11.1 kmh WNW 10.4 mph16.7 kmh 29.49 in998.6 mb - 0.00 in0.0 mm 0.00 in0.0 mm
12:30 PM 51.3°F10.7°C 42.6°F5.9°C 72% 6.9 mph WNW11.1 kmh WNW 11.5 mph18.5 kmh 29.49 in998.6 mb - 0.00 in0.0 mm 0.00 in0.0 mm
12:20 PM 51.5°F10.8°C 43.1°F6.2°C 73% 6.9 mph W11.1 kmh W 10.4 mph16.7 kmh 29.49 in998.6 mb - 0.00 in0.0 mm 0.00 in0.0 mm
12:10 PM 51.0°F10.6°C 43.0°F6.1°C 74% 5.8 mph WNW9.3 kmh WNW 11.5 mph18.5 kmh 29.49 in998.6 mb - 0.00 in0.0 mm 0.00 in0.0 mm
12:00 PM 50.2°F10.1°C 42.2°F5.7°C 74% 4.6 mph W7.4 kmh W 6.9 mph11.1 kmh 29.49 in998.6 mb - 0.00 in0.0 mm 0.00 in0.0 mm
11:50 AM 50.0°F10.0°C 42.4°F5.8°C 75% 4.6 mph NW7.4 kmh NW 9.2 mph14.8 kmh 29.48 in998.3 mb - 0.00 in0.0 mm 0.00 in0.0 mm
11:40 AM 50.5°F10.3°C 42.9°F6.1°C 75% 6.9 mph WNW11.1 kmh WNW 10.4 mph16.7 kmh 29.49 in998.6 mb - 0.00 in0.0 mm 0.00 in0.0 mm
11:30 AM 50.8°F10.4°C 43.5°F6.4°C 76% 6.9 mph WNW11.1 kmh WNW 8.1 mph13.0 kmh 29.48 in998.3 mb - 0.00 in0.0 mm 0.00 in0.0 mm
11:20 AM 49.9°F9.9°C 42.6°F5.9°C 76% 5.8 mph WNW9.3 kmh WNW 9.2 mph14.8 kmh 29.48 in998.3 mb - 0.00 in0.0 mm 0.00 in0.0 mm
11:10 AM 50.1°F10.1°C 42.8°F6.0°C 76% 4.6 mph WNW7.4 kmh WNW 6.9 mph11.1 kmh 29.48 in998.3 mb - 0.00 in0.0 mm 0.00 in0.0 mm
11:00 AM 50.9°F10.5°C 43.2°F6.2°C 75% 6.9 mph WNW11.1 kmh WNW 9.2 mph14.8 kmh 29.48 in998.3 mb - 0.00 in0.0 mm 0.00 in0.0 mm
10:50 AM 51.6°F10.9°C 44.7°F7.1°C 77% 5.8 mph WNW9.3 kmh WNW 9.2 mph14.8 kmh 29.48 in998.3 mb - 0.00 in0.0 mm 0.00 in0.0 mm
10:40 AM 49.9°F9.9°C 43.0°F6.1°C 77% 5.8 mph WNW9.3 kmh WNW 8.1 mph13.0 kmh 29.48 in998.3 mb - 0.00 in0.0 mm 0.00 in0.0 mm
10:30 AM 49.9°F9.9°C 43.3°F6.3°C 78% 4.6 mph WNW7.4 kmh WNW 5.8 mph9.3 kmh 29.48 in998.3 mb - 0.00 in0.0 mm 0.00 in0.0 mm
10:20 AM 49.2°F9.6°C 43.0°F6.1°C 79% 4.6 mph WNW7.4 kmh WNW 6.9 mph11.1 kmh 29.48 in998.3 mb - 0.00 in0.0 mm 0.00 in0.0 mm
10:10 AM 49.3°F9.6°C 43.1°F6.2°C 79% 3.5 mph NW5.6 kmh NW 5.8 mph9.3 kmh 29.48 in998.3 mb - 0.00 in0.0 mm 0.00 in0.0 mm
10:00 AM 49.2°F9.6°C 43.6°F6.4°C 81% 5.8 mph WNW9.3 kmh WNW 9.2 mph14.8 kmh 29.48 in998.3 mb - 0.00 in0.0 mm 0.00 in0.0 mm
09:50 AM 48.9°F9.4°C 43.0°F6.1°C 80% 4.6 mph WNW7.4 kmh WNW 6.9 mph11.1 kmh 29.48 in998.3 mb - 0.00 in0.0 mm 0.00 in0.0 mm
09:40 AM 49.1°F9.5°C 43.2°F6.2°C 80% 5.8 mph W9.3 kmh W 9.2 mph14.8 kmh 29.48 in998.3 mb - 0.00 in0.0 mm 0.00 in0.0 mm
09:30 AM 49.7°F9.8°C 43.4°F6.3°C 79% 5.8 mph WNW9.3 kmh WNW 5.8 mph9.3 kmh 29.48 in998.3 mb - 0.00 in0.0 mm 0.00 in0.0 mm
09:20 AM 50.4°F10.2°C 44.5°F6.9°C 80% 4.6 mph W7.4 kmh W 6.9 mph11.1 kmh 29.47 in998.0 mb - 0.00 in0.0 mm 0.00 in0.0 mm
09:10 AM 50.1°F10.1°C 44.5°F6.9°C 81% 4.6 mph WNW7.4 kmh WNW 10.4 mph16.7 kmh 29.47 in998.0 mb - 0.00 in0.0 mm 0.00 in0.0 mm
09:00 AM 49.0°F9.4°C 43.7°F6.5°C 82% 3.5 mph WNW5.6 kmh WNW 5.8 mph9.3 kmh 29.48 in998.3 mb - 0.00 in0.0 mm 0.00 in0.0 mm
08:50 AM 48.6°F9.2°C 43.3°F6.3°C 82% 3.5 mph WNW5.6 kmh WNW 4.6 mph7.4 kmh 29.48 in998.3 mb - 0.00 in0.0 mm 0.00 in0.0 mm
08:40 AM 48.7°F9.3°C 43.8°F6.6°C 83% 3.5 mph WNW5.6 kmh WNW 6.9 mph11.1 kmh 29.47 in998.0 mb - 0.00 in0.0 mm 0.00 in0.0 mm
08:30 AM 48.3°F9.1°C 44.0°F6.7°C 85% 5.8 mph WNW9.3 kmh WNW 8.1 mph13.0 kmh 29.47 in998.0 mb - 0.00 in0.0 mm 0.00 in0.0 mm
08:20 AM 48.1°F8.9°C 43.8°F6.6°C 85% 2.3 mph W3.7 kmh W 5.8 mph9.3 kmh 29.47 in998.0 mb - 0.00 in0.0 mm 0.00 in0.0 mm
08:10 AM 47.8°F8.8°C 43.8°F6.6°C 86% 3.5 mph W5.6 kmh W 3.5 mph5.6 kmh 29.47 in998.0 mb - 0.00 in0.0 mm 0.00 in0.0 mm
08:00 AM 47.6°F8.7°C 43.6°F6.4°C 86% 1.2 mph W1.9 kmh W 3.5 mph5.6 kmh 29.47 in998.0 mb - 0.00 in0.0 mm 0.00 in0.0 mm
07:50 AM 47.3°F8.5°C 43.3°F6.3°C 86% 2.3 mph W3.7 kmh W 4.6 mph7.4 kmh 29.47 in998.0 mb - 0.00 in0.0 mm 0.00 in0.0 mm
07:40 AM 47.1°F8.4°C 43.4°F6.3°C 87% 3.5 mph W5.6 kmh W 4.6 mph7.4 kmh 29.47 in998.0 mb - 0.00 in0.0 mm 0.00 in0.0 mm
07:30 AM 47.0°F8.3°C 43.9°F6.6°C 89% 3.5 mph WNW5.6 kmh WNW 3.5 mph5.6 kmh 29.47 in998.0 mb - 0.00 in0.0 mm 0.00 in0.0 mm
07:20 AM 46.5°F8.1°C 43.7°F6.5°C 90% 3.5 mph W5.6 kmh W 3.5 mph5.6 kmh 29.47 in998.0 mb - 0.00 in0.0 mm 0.00 in0.0 mm
07:10 AM 46.2°F7.9°C 43.7°F6.5°C 91% 3.5 mph W5.6 kmh W 6.9 mph11.1 kmh 29.46 in997.6 mb - 0.00 in0.0 mm 0.00 in0.0 mm
07:00 AM 45.8°F7.7°C 43.3°F6.3°C 91% 3.5 mph WNW5.6 kmh WNW 4.6 mph7.4 kmh 29.46 in997.6 mb - 0.00 in0.0 mm 0.00 in0.0 mm
06:50 AM 45.5°F7.5°C 43.0°F6.1°C 91% 2.3 mph W3.7 kmh W 3.5 mph5.6 kmh 29.46 in997.6 mb - 0.00 in0.0 mm 0.00 in0.0 mm
06:40 AM 45.3°F7.4°C 42.8°F6.0°C 91% 2.3 mph W3.7 kmh W 3.5 mph5.6 kmh 29.46 in997.6 mb - 0.00 in0.0 mm 0.00 in0.0 mm
06:30 AM 45.3°F7.4°C 43.1°F6.2°C 92% 2.3 mph WSW3.7 kmh WSW 3.5 mph5.6 kmh 29.46 in997.6 mb - 0.00 in0.0 mm 0.00 in0.0 mm
06:20 AM 45.1°F7.3°C 42.9°F6.1°C 92% Calm Calm 2.3 mph3.7 kmh 29.47 in998.0 mb - 0.00 in0.0 mm 0.00 in0.0 mm
06:10 AM 45.0°F7.2°C 42.8°F6.0°C 92% 1.2 mph W1.9 kmh W 2.3 mph3.7 kmh 29.46 in997.6 mb - 0.00 in0.0 mm 0.00 in0.0 mm
06:00 AM 44.9°F7.2°C 42.7°F5.9°C 92% Calm Calm -- 29.46 in997.6 mb - 0.00 in0.0 mm 0.00 in0.0 mm
05:50 AM 44.9°F7.2°C 42.7°F5.9°C 92% 1.2 mph W1.9 kmh W 2.3 mph3.7 kmh 29.47 in998.0 mb - 0.00 in0.0 mm 0.00 in0.0 mm
05:40 AM 44.5°F6.9°C 42.3°F5.7°C 92% Calm Calm -- 29.47 in998.0 mb - 0.00 in0.0 mm 0.00 in0.0 mm
05:30 AM 44.2°F6.8°C 42.1°F5.6°C 92% Calm Calm -- 29.47 in998.0 mb - 0.00 in0.0 mm 0.00 in0.0 mm
05:20 AM 44.0°F6.7°C 41.8°F5.4°C 92% Calm Calm -- 29.47 in998.0 mb - 0.00 in0.0 mm 0.00 in0.0 mm
05:10 AM 43.8°F6.6°C 41.6°F5.3°C 92% Calm Calm -- 29.47 in998.0 mb - 0.00 in0.0 mm 0.00 in0.0 mm
05:00 AM 43.7°F6.5°C 41.5°F5.3°C 92% Calm Calm -- 29.47 in998.0 mb - 0.00 in0.0 mm 0.00 in0.0 mm
04:50 AM 43.5°F6.4°C 41.3°F5.2°C 92% Calm Calm -- 29.48 in998.3 mb - 0.00 in0.0 mm 0.00 in0.0 mm
04:40 AM 43.3°F6.3°C 41.1°F5.1°C 92% Calm Calm -- 29.47 in998.0 mb - 0.00 in0.0 mm 0.00 in0.0 mm
04:30 AM 43.1°F6.2°C 40.9°F4.9°C 92% Calm Calm -- 29.48 in998.3 mb - 0.00 in0.0 mm 0.00 in0.0 mm
04:20 AM 42.8°F6.0°C 40.6°F4.8°C 92% Calm Calm -- 29.48 in998.3 mb - 0.00 in0.0 mm 0.00 in0.0 mm
04:10 AM 42.7°F5.9°C 40.5°F4.7°C 92% Calm Calm -- 29.48 in998.3 mb - 0.00 in0.0 mm 0.00 in0.0 mm
04:00 AM 42.6°F5.9°C 40.4°F4.7°C 92% Calm Calm -- 29.48 in998.3 mb - 0.00 in0.0 mm 0.00 in0.0 mm
03:50 AM 42.5°F5.8°C 40.1°F4.5°C 91% Calm Calm -- 29.48 in998.3 mb - 0.00 in0.0 mm 0.00 in0.0 mm
03:40 AM 42.4°F5.8°C 40.2°F4.6°C 92% Calm Calm -- 29.48 in998.3 mb - 0.00 in0.0 mm 0.00 in0.0 mm
03:30 AM 42.2°F5.7°C 39.8°F4.3°C 91% Calm Calm -- 29.48 in998.3 mb - 0.00 in0.0 mm 0.00 in0.0 mm
03:20 AM 42.4°F5.8°C 40.0°F4.4°C 91% Calm Calm -- 29.48 in998.3 mb - 0.00 in0.0 mm 0.00 in0.0 mm
03:10 AM 42.3°F5.7°C 39.9°F4.4°C 91% Calm Calm -- 29.48 in998.3 mb - 0.00 in0.0 mm 0.00 in0.0 mm
03:00 AM 42.1°F5.6°C 39.7°F4.3°C 91% Calm Calm -- 29.48 in998.3 mb - 0.00 in0.0 mm 0.00 in0.0 mm
02:50 AM 42.1°F5.6°C 39.7°F4.3°C 91% Calm Calm -- 29.48 in998.3 mb - 0.00 in0.0 mm 0.00 in0.0 mm
02:40 AM 42.2°F5.7°C 39.8°F4.3°C 91% Calm Calm -- 29.49 in998.6 mb - 0.00 in0.0 mm 0.00 in0.0 mm
02:30 AM 42.4°F5.8°C 40.0°F4.4°C 91% Calm Calm -- 29.49 in998.6 mb - 0.00 in0.0 mm 0.00 in0.0 mm
02:20 AM 42.5°F5.8°C 40.1°F4.5°C 91% Calm Calm -- 29.49 in998.6 mb - 0.00 in0.0 mm 0.00 in0.0 mm
02:10 AM 42.6°F5.9°C 40.2°F4.6°C 91% Calm Calm -- 29.49 in998.6 mb - 0.00 in0.0 mm 0.00 in0.0 mm
02:00 AM 42.5°F5.8°C 40.1°F4.5°C 91% Calm Calm -- 29.49 in998.6 mb - 0.00 in0.0 mm 0.00 in0.0 mm
01:50 AM 42.4°F5.8°C 40.0°F4.4°C 91% Calm Calm -- 29.49 in998.6 mb - 0.00 in0.0 mm 0.00 in0.0 mm
01:40 AM 42.4°F5.8°C 39.9°F4.4°C 91% Calm Calm -- 29.50 in999.0 mb - 0.00 in0.0 mm 0.00 in0.0 mm
01:30 AM 42.0°F5.6°C 39.5°F4.2°C 91% Calm Calm -- 29.50 in999.0 mb - 0.00 in0.0 mm 0.00 in0.0 mm
01:20 AM 41.5°F5.3°C 38.8°F3.8°C 90% Calm Calm -- 29.50 in999.0 mb - 0.00 in0.0 mm 0.00 in0.0 mm
01:10 AM 41.6°F5.3°C 38.9°F3.8°C 90% Calm Calm -- 29.50 in999.0 mb - 0.00 in0.0 mm 0.00 in0.0 mm
01:00 AM 41.4°F5.2°C 38.7°F3.7°C 90% Calm Calm -- 29.50 in999.0 mb - 0.00 in0.0 mm 0.00 in0.0 mm
12:50 AM 41.2°F5.1°C 38.5°F3.6°C 90% Calm Calm -- 29.50 in999.0 mb - 0.00 in0.0 mm 0.00 in0.0 mm
12:40 AM 41.4°F5.2°C 38.7°F3.7°C 90% Calm Calm -- 29.50 in999.0 mb - 0.00 in0.0 mm 0.00 in0.0 mm
12:30 AM 41.4°F5.2°C 38.7°F3.7°C 90% Calm Calm -- 29.51 in999.3 mb - 0.00 in0.0 mm 0.00 in0.0 mm
12:20 AM 41.4°F5.2°C 38.4°F3.6°C 89% Calm Calm -- 29.51 in999.3 mb - 0.00 in0.0 mm 0.00 in0.0 mm
12:10 AM 41.4°F5.2°C 38.4°F3.6°C 89% Calm Calm -- 29.51 in999.3 mb - 0.00 in0.0 mm 0.00 in0.0 mm
12:00 AM 41.7°F5.4°C 38.4°F3.6°C 88% Calm Calm -- 29.51 in999.3 mb - 0.00 in0.0 mm 0.00 in0.0 mm